Time;durP1;ratioP1;P1;durP2;ratioP2;P2;SDS_P1;SDS_P2;PMS_P1;PMS_P2;Temp;Humidity;BMP_temperature;BMP_pressure;BME280_temperature;BME280_humidity;BME280_pressure;Samples;Min_cycle;Max_cycle;Signal;HPM_P1;HPM_P2
2022/10/26 00:01:04;;;;;;;7.33;4.33;;;;;;;12.20;100.00;98116.69;5014146;28;20235;-70
2022/10/26 00:03:31;;;;;;;9.97;4.30;;;;;;;12.22;100.00;98110.09;5014162;28;20208;-70
2022/10/26 00:06:07;;;;;;;10.43;4.53;;;;;;;12.24;100.00;98116.00;5013757;28;20210;-70
2022/10/26 00:08:33;;;;;;;8.60;4.80;;;;;;;12.27;100.00;98106.72;5013709;28;20256;-70
2022/10/26 00:11:00;;;;;;;7.47;4.33;;;;;;;12.23;100.00;98110.91;5013692;28;20317;-70
2022/10/26 00:13:27;;;;;;;8.50;4.57;;;;;;;12.20;100.00;98122.81;5013406;28;20571;-70
2022/10/26 00:15:53;;;;;;;8.17;4.80;;;;;;;12.24;100.00;98117.84;5013626;28;20222;-70
2022/10/26 00:18:20;;;;;;;9.43;4.60;;;;;;;12.24;100.00;98109.84;5013664;28;20299;-70
2022/10/26 00:20:47;;;;;;;7.77;4.03;;;;;;;12.27;100.00;98123.56;5013571;28;20229;-70
2022/10/26 00:23:13;;;;;;;8.50;4.97;;;;;;;12.30;100.00;98122.28;5013558;28;20553;-70
2022/10/26 00:25:39;;;;;;;9.80;4.83;;;;;;;12.34;100.00;98124.25;5014611;28;20213;-70
2022/10/26 00:28:06;;;;;;;6.93;4.37;;;;;;;12.34;100.00;98118.91;5014177;28;20229;-70
2022/10/26 00:30:32;;;;;;;11.37;5.27;;;;;;;12.30;100.00;98112.41;5013393;28;20231;-70
2022/10/26 00:32:58;;;;;;;8.47;5.07;;;;;;;12.34;100.00;98113.59;5013656;28;20206;-70
2022/10/26 00:35:25;;;;;;;9.40;4.60;;;;;;;12.35;100.00;98117.88;5013730;28;20235;-70
2022/10/26 00:37:55;;;;;;;10.27;5.20;;;;;;;12.36;100.00;98116.84;5013663;28;20214;-70
2022/10/26 00:40:22;;;;;;;7.93;5.00;;;;;;;12.36;100.00;98110.69;5013313;28;20730;-70
2022/10/26 00:42:49;;;;;;;10.57;5.50;;;;;;;12.38;100.00;98113.97;5013678;28;20209;-70
2022/10/26 00:45:26;;;;;;;6.57;4.30;;;;;;;12.38;100.00;98112.09;5013648;28;20207;-70
2022/10/26 00:47:56;;;;;;;9.13;5.23;;;;;;;12.37;100.00;98121.13;5013303;28;20689;-70
2022/10/26 00:50:26;;;;;;;9.93;4.90;;;;;;;12.39;100.00;98119.03;5013570;28;20230;-70
2022/10/26 00:52:54;;;;;;;9.70;4.67;;;;;;;12.40;100.00;98118.03;5014648;28;20206;-70
2022/10/26 00:55:24;;;;;;;8.70;4.13;;;;;;;12.40;100.00;98111.88;5013564;28;20202;-70
2022/10/26 00:57:53;;;;;;;8.53;4.33;;;;;;;12.41;100.00;98118.81;5013577;28;20190;-70
2022/10/26 01:00:20;;;;;;;8.30;4.73;;;;;;;12.42;100.00;98123.09;5013369;28;20694;-70
2022/10/26 01:02:49;;;;;;;6.60;4.07;;;;;;;12.40;100.00;98120.69;5013158;28;20214;-70
2022/10/26 01:05:17;;;;;;;5.47;4.00;;;;;;;12.41;100.00;98116.97;5013455;28;20213;-70
2022/10/26 01:07:45;;;;;;;7.90;3.90;;;;;;;12.42;100.00;98121.25;5013357;28;20229;-70
2022/10/26 01:10:12;;;;;;;6.40;3.77;;;;;;;12.40;100.00;98118.03;5013820;28;20234;-70
2022/10/26 01:12:39;;;;;;;7.33;3.67;;;;;;;12.39;100.00;98121.72;5013411;28;20259;-70
2022/10/26 01:15:07;;;;;;;5.90;4.10;;;;;;;12.46;100.00;98116.28;5013117;28;20222;-70
2022/10/26 01:17:51;;;;;;;6.60;4.27;;;;;;;12.52;100.00;98116.19;5013876;28;20186;-70
2022/10/26 01:20:38;;;;;;;6.00;3.57;;;;;;;12.41;100.00;98110.81;5012311;28;20230;-70
2022/10/26 01:23:32;;;;;;;8.33;4.50;;;;;;;12.36;100.00;98105.38;5013475;28;20233;-70
2022/10/26 01:26:21;;;;;;;6.73;4.00;;;;;;;12.33;100.00;98101.31;5016966;28;20206;-70
2022/10/26 01:29:06;;;;;;;4.60;3.43;;;;;;;12.34;100.00;98102.94;5015495;28;20587;-70
2022/10/26 01:31:57;;;;;;;5.33;3.13;;;;;;;12.37;100.00;98089.16;5016450;28;20233;-70
2022/10/26 01:34:37;;;;;;;5.33;2.73;;;;;;;12.37;100.00;98093.66;5015838;28;20233;-70
2022/10/26 01:37:12;;;;;;;5.67;3.33;;;;;;;12.35;100.00;98087.75;5016864;28;20198;-70
2022/10/26 01:39:45;;;;;;;3.87;3.07;;;;;;;12.31;100.00;98099.91;5016824;28;20208;-70
2022/10/26 01:42:15;;;;;;;5.37;3.40;;;;;;;12.28;100.00;98073.69;5016769;28;20539;-70
2022/10/26 01:45:07;;;;;;;4.33;3.10;;;;;;;12.31;100.00;98082.06;5016683;28;20213;-70
2022/10/26 01:47:34;;;;;;;6.53;3.33;;;;;;;12.31;100.00;98098.06;5008725;28;20583;-70
2022/10/26 01:50:03;;;;;;;5.47;3.33;;;;;;;12.30;100.00;98088.41;5015355;28;20233;-70
2022/10/26 01:52:29;;;;;;;8.60;4.40;;;;;;;12.29;100.00;98070.81;5016196;28;20217;-69
2022/10/26 01:55:26;;;;;;;7.57;3.63;;;;;;;12.32;100.00;98089.03;5016468;28;20582;-69
2022/10/26 01:57:57;;;;;;;8.53;3.77;;;;;;;12.24;100.00;98093.84;5016048;28;20204;-70
2022/10/26 02:00:23;;;;;;;7.23;4.23;;;;;;;12.19;100.00;98089.22;5014903;28;20237;-70
2022/10/26 02:03:06;;;;;;;6.67;4.53;;;;;;;12.22;100.00;98077.28;5016258;28;20214;-69
2022/10/26 02:05:41;;;;;;;7.73;4.93;;;;;;;12.14;100.00;98069.63;5016228;28;20267;-70
2022/10/26 02:08:19;;;;;;;7.90;4.67;;;;;;;12.13;100.00;98058.16;5016124;28;20215;-69
2022/10/26 02:11:03;;;;;;;9.77;4.57;;;;;;;12.15;100.00;98060.56;5015843;28;20229;-69
2022/10/26 02:13:53;;;;;;;8.47;5.20;;;;;;;12.12;100.00;98055.72;5015829;28;20661;-70
2022/10/26 02:16:30;;;;;;;9.97;4.63;;;;;;;12.10;100.00;98055.13;5015834;28;20229;-69
2022/10/26 02:19:25;;;;;;;7.03;4.60;;;;;;;12.05;100.00;98050.50;5014950;28;20201;-69
2022/10/26 02:21:59;;;;;;;8.13;4.53;;;;;;;12.09;100.00;98045.50;5015624;28;20593;-69
2022/10/26 02:24:27;;;;;;;13.83;5.40;;;;;;;11.98;100.00;98055.09;5016138;28;20278;-69
2022/10/26 02:26:58;;;;;;;10.37;5.10;;;;;;;11.92;100.00;98061.34;5015917;28;20295;-70
2022/10/26 02:29:26;;;;;;;9.40;4.83;;;;;;;11.93;100.00;98062.16;5015572;28;20190;-70
2022/10/26 02:31:53;;;;;;;8.27;4.63;;;;;;;11.86;100.00;98072.91;5015729;28;20223;-70
2022/10/26 02:34:25;;;;;;;10.40;4.80;;;;;;;11.91;100.00;98083.69;5015762;28;20230;-70
2022/10/26 02:36:55;;;;;;;12.47;5.77;;;;;;;11.85;100.00;98076.59;5014891;28;20188;-70
2022/10/26 02:39:23;;;;;;;10.50;5.07;;;;;;;11.89;100.00;98075.09;5015739;28;20188;-70
2022/10/26 02:41:50;;;;;;;10.30;4.43;;;;;;;11.93;100.00;98086.13;5015557;28;20574;-70
2022/10/26 02:44:30;;;;;;;6.87;4.60;;;;;;;11.93;100.00;98097.59;5015573;28;20207;-70
2022/10/26 02:46:58;;;;;;;7.27;4.77;;;;;;;11.99;100.00;98088.72;5015243;28;20203;-70
2022/10/26 02:49:25;;;;;;;5.87;4.67;;;;;;;11.99;100.00;98094.03;5015376;28;20237;-70
2022/10/26 02:52:01;;;;;;;8.30;4.50;;;;;;;11.97;100.00;98082.78;5015371;28;20225;-70
2022/10/26 02:54:40;;;;;;;7.87;4.53;;;;;;;11.99;100.00;98086.06;5015380;28;20188;-70
2022/10/26 02:57:19;;;;;;;6.23;4.47;;;;;;;11.94;100.00;98083.22;5014144;28;20225;-70
2022/10/26 02:59:47;;;;;;;6.43;4.43;;;;;;;11.95;100.00;98082.22;5015184;28;20536;-70
2022/10/26 03:02:19;;;;;;;10.57;4.50;;;;;;;11.94;100.00;98077.91;5015119;28;20244;-70
2022/10/26 03:04:45;;;;;;;10.63;4.27;;;;;;;11.91;100.00;98083.69;5014858;28;20200;-70
2022/10/26 03:07:11;;;;;;;7.90;4.70;;;;;;;11.88;100.00;98081.47;5014955;28;20215;-70
2022/10/26 03:09:38;;;;;;;8.03;4.47;;;;;;;11.88;100.00;98088.63;5014945;28;20299;-70
2022/10/26 03:12:05;;;;;;;5.50;3.93;;;;;;;11.89;100.00;98092.94;5014838;28;20213;-70
2022/10/26 03:14:31;;;;;;;9.37;4.60;;;;;;;11.80;100.00;98105.75;5014808;28;20570;-70
2022/10/26 03:16:57;;;;;;;6.97;4.30;;;;;;;11.90;100.00;98108.72;5014624;28;20226;-70
2022/10/26 03:19:24;;;;;;;4.87;3.63;;;;;;;11.94;100.00;98104.53;5014776;28;20211;-70
2022/10/26 03:21:51;;;;;;;6.60;4.50;;;;;;;11.94;100.00;98103.75;5014724;28;20241;-70
2022/10/26 03:24:17;;;;;;;5.00;4.13;;;;;;;11.96;100.00;98112.31;5014703;28;20210;-70
2022/10/26 03:26:43;;;;;;;5.37;3.83;;;;;;;12.00;100.00;98113.50;5014889;28;20217;-69
2022/10/26 03:29:10;;;;;;;6.87;3.60;;;;;;;11.99;100.00;98122.53;5014572;28;20232;-69
2022/10/26 03:31:36;;;;;;;7.97;3.93;;;;;;;12.00;100.00;98127.63;5015188;28;20233;-69
2022/10/26 03:34:02;;;;;;;6.43;3.60;;;;;;;12.02;100.00;98119.41;5014407;28;20205;-70
2022/10/26 03:36:29;;;;;;;8.70;4.10;;;;;;;12.08;100.00;98119.28;5014311;28;20208;-69
2022/10/26 03:38:55;;;;;;;8.27;3.90;;;;;;;12.10;100.00;98146.56;5014062;28;20212;-69
2022/10/26 03:41:21;;;;;;;6.97;3.73;;;;;;;12.01;100.00;98139.09;5014377;28;20228;-69
2022/10/26 03:43:48;;;;;;;8.47;4.27;;;;;;;12.01;100.00;98134.59;5014267;28;20205;-70
2022/10/26 03:46:14;;;;;;;6.27;3.80;;;;;;;12.04;100.00;98133.31;5014306;28;20693;-69
2022/10/26 03:48:41;;;;;;;7.30;3.80;;;;;;;12.07;100.00;98128.34;5012989;28;20698;-70
2022/10/26 03:51:07;;;;;;;5.67;3.67;;;;;;;12.11;100.00;98124.19;5014101;28;20585;-69
2022/10/26 03:53:34;;;;;;;8.17;4.10;;;;;;;12.20;100.00;98122.03;5013982;28;20210;-70
2022/10/26 03:56:00;;;;;;;8.40;3.67;;;;;;;12.14;100.00;98131.75;5014097;28;20228;-69
2022/10/26 03:58:26;;;;;;;5.90;3.80;;;;;;;12.17;100.00;98117.16;5014672;28;20208;-69
2022/10/26 04:00:53;;;;;;;5.30;3.40;;;;;;;12.16;100.00;98124.31;5014265;28;20240;-69
2022/10/26 04:03:19;;;;;;;7.53;3.57;;;;;;;12.17;100.00;98117.16;5013884;28;20209;-69
2022/10/26 04:05:45;;;;;;;5.97;4.07;;;;;;;12.10;100.00;98111.91;5013837;28;20306;-70
2022/10/26 04:08:12;;;;;;;8.87;4.07;;;;;;;12.10;100.00;98108.41;5014301;28;20229;-69
2022/10/26 04:10:38;;;;;;;7.43;3.90;;;;;;;12.09;100.00;98110.28;5013782;28;20233;-69
2022/10/26 04:13:04;;;;;;;8.43;3.83;;;;;;;12.08;100.00;98105.97;5013835;28;20223;-69
2022/10/26 04:15:31;;;;;;;7.20;4.03;;;;;;;12.10;100.00;98095.91;5013609;28;20215;-69
2022/10/26 04:18:02;;;;;;;5.93;3.73;;;;;;;12.12;100.00;98096.50;5013673;28;20201;-69
2022/10/26 04:20:30;;;;;;;6.73;3.97;;;;;;;12.15;100.00;98085.38;5013666;28;20229;-70
2022/10/26 04:23:01;;;;;;;8.57;4.13;;;;;;;12.15;100.00;98093.38;5013651;28;20208;-69
2022/10/26 04:25:28;;;;;;;6.43;4.47;;;;;;;12.16;100.00;98091.53;5014176;28;20191;-69
2022/10/26 04:27:54;;;;;;;6.80;4.70;;;;;;;12.16;100.00;98097.66;5013423;28;20228;-70
2022/10/26 04:30:21;;;;;;;7.93;4.70;;;;;;;12.17;100.00;98085.97;5013176;28;20239;-69
2022/10/26 04:32:48;;;;;;;7.60;4.53;;;;;;;12.19;100.00;98093.72;5013519;28;20249;-70
2022/10/26 04:35:14;;;;;;;8.07;4.37;;;;;;;12.22;100.00;98098.63;5013621;28;20212;-70
2022/10/26 04:37:41;;;;;;;7.03;4.37;;;;;;;12.23;100.00;98101.06;5012956;28;20211;-70
2022/10/26 04:40:07;;;;;;;7.23;4.17;;;;;;;12.28;100.00;98101.19;5013144;28;20228;-70
2022/10/26 04:42:44;;;;;;;5.97;4.73;;;;;;;12.29;100.00;98113.47;5012881;28;20315;-70
2022/10/26 04:45:12;;;;;;;7.37;4.00;;;;;;;12.31;100.00;98103.41;5013345;28;20197;-70
2022/10/26 04:47:39;;;;;;;6.73;3.90;;;;;;;12.36;100.00;98100.03;5013187;28;20208;-70
2022/10/26 04:50:07;;;;;;;6.10;4.07;;;;;;;12.37;100.00;98106.97;5013209;28;20247;-70
2022/10/26 04:52:34;;;;;;;5.30;3.63;;;;;;;12.45;100.00;98096.81;5013302;28;20213;-70
2022/10/26 04:55:04;;;;;;;6.43;3.90;;;;;;;12.42;100.00;98099.09;5012864;28;20203;-70
2022/10/26 04:57:31;;;;;;;6.83;4.37;;;;;;;12.41;100.00;98103.66;5013192;28;20240;-70
2022/10/26 04:59:58;;;;;;;10.37;3.70;;;;;;;12.45;100.00;98091.50;5015894;28;20212;-70
2022/10/26 05:02:24;;;;;;;7.37;4.03;;;;;;;12.48;100.00;98087.53;5016573;28;20212;-69
2022/10/26 05:04:50;;;;;;;7.37;3.90;;;;;;;12.51;100.00;98093.22;5016429;28;20673;-70
2022/10/26 05:07:17;;;;;;;9.10;3.77;;;;;;;12.49;100.00;98100.66;5017090;28;20208;-70
2022/10/26 05:09:43;;;;;;;7.07;3.97;;;;;;;12.54;100.00;98097.28;5016987;28;20232;-70
2022/10/26 05:12:10;;;;;;;9.60;3.63;;;;;;;12.64;100.00;98093.00;5016572;28;20661;-69
2022/10/26 05:14:36;;;;;;;8.07;3.93;;;;;;;12.49;100.00;98103.31;5016483;28;20630;-70
2022/10/26 05:17:02;;;;;;;5.23;3.07;;;;;;;12.53;100.00;98109.00;5016658;28;20221;-70
2022/10/26 05:19:29;;;;;;;6.10;3.13;;;;;;;12.60;100.00;98099.84;5016423;28;20209;-70
2022/10/26 05:21:55;;;;;;;3.90;2.90;;;;;;;12.65;100.00;98099.97;5016176;28;20235;-70
2022/10/26 05:24:22;;;;;;;5.00;2.70;;;;;;;12.85;100.00;98100.44;5016258;28;20581;-70
2022/10/26 05:26:48;;;;;;;5.33;2.57;;;;;;;12.87;100.00;98103.69;5016006;28;20209;-70
2022/10/26 05:29:14;;;;;;;3.70;2.80;;;;;;;12.94;100.00;98119.59;5016303;28;20240;-70
2022/10/26 05:31:41;;;;;;;6.77;3.20;;;;;;;12.84;100.00;98122.03;5016429;28;20280;-70
2022/10/26 05:34:07;;;;;;;5.87;3.00;;;;;;;12.90;100.00;98124.59;5016157;28;20206;-69
2022/10/26 05:36:33;;;;;;;3.73;2.70;;;;;;;12.85;100.00;98120.97;5016059;28;20217;-70
2022/10/26 05:39:00;;;;;;;5.77;3.07;;;;;;;12.97;100.00;98125.28;5015840;28;20213;-69
2022/10/26 05:41:26;;;;;;;5.03;2.33;;;;;;;12.95;100.00;98122.03;5016195;28;20230;-70
2022/10/26 05:43:53;;;;;;;9.13;2.93;;;;;;;12.95;100.00;98127.38;5015383;28;20205;-70
2022/10/26 05:46:19;;;;;;;4.93;2.30;;;;;;;12.98;100.00;98126.91;5016767;28;20213;-70
2022/10/26 05:48:45;;;;;;;4.53;2.10;;;;;;;13.06;100.00;98133.78;5016241;28;20230;-70
2022/10/26 05:51:13;;;;;;;3.90;2.33;;;;;;;13.09;100.00;98128.78;5016066;28;20226;-70
2022/10/26 05:53:39;;;;;;;4.47;2.10;;;;;;;13.21;100.00;98137.56;5015806;28;20255;-70
2022/10/26 05:56:34;;;;;;;4.03;2.50;;;;;;;13.27;100.00;98141.19;5015835;28;20203;-70
2022/10/26 05:59:01;;;;;;;4.73;2.73;;;;;;;13.21;100.00;98148.25;5008616;28;20203;-70
2022/10/26 06:01:52;;;;;;;7.63;2.50;;;;;;;13.23;100.00;98145.34;5015483;28;20226;-71
2022/10/26 06:04:37;;;;;;;5.60;2.30;;;;;;;13.32;100.00;98151.97;5015588;28;20210;-72
2022/10/26 06:07:10;;;;;;;4.10;2.40;;;;;;;13.30;100.00;98152.19;5015546;28;20210;-72
2022/10/26 06:09:38;;;;;;;3.57;2.30;;;;;;;13.27;100.00;98151.84;5015943;28;20215;-72
2022/10/26 06:12:06;;;;;;;4.20;2.40;;;;;;;13.25;100.00;98159.31;5014348;28;20231;-72
2022/10/26 06:14:33;;;;;;;3.37;2.20;;;;;;;13.25;100.00;98164.66;5015368;28;20236;-72
2022/10/26 06:17:11;;;;;;;5.07;2.30;;;;;;;13.22;100.00;98171.25;5015197;28;20237;-72
2022/10/26 06:19:56;;;;;;;3.07;2.20;;;;;;;13.19;100.00;98187.72;5015723;28;20197;-72
2022/10/26 06:23:01;;;;;;;3.07;2.20;;;;;;;13.17;100.00;98197.84;5015436;28;20215;-70
2022/10/26 06:25:37;;;;;;;3.97;2.20;;;;;;;13.16;100.00;98193.53;5003190;28;20202;-71
2022/10/26 06:28:21;;;;;;;4.53;2.43;;;;;;;13.15;100.00;98202.59;5015023;28;20194;-71
2022/10/26 06:30:47;;;;;;;4.50;2.20;;;;;;;13.16;100.00;98208.75;5015600;28;20231;-71
2022/10/26 06:33:15;;;;;;;3.37;2.30;;;;;;;13.16;100.00;98214.88;5015242;28;20230;-71
2022/10/26 06:35:41;;;;;;;4.97;3.00;;;;;;;13.14;100.00;98208.97;5014976;28;20210;-70
2022/10/26 06:38:14;;;;;;;4.90;2.97;;;;;;;13.13;100.00;98199.34;5015102;28;20310;-71
2022/10/26 06:40:43;;;;;;;4.97;2.73;;;;;;;13.26;100.00;98207.13;5015173;28;20233;-71
2022/10/26 06:43:13;;;;;;;6.13;3.07;;;;;;;13.26;100.00;98208.97;5015206;28;20221;-71
2022/10/26 06:45:45;;;;;;;6.27;3.40;;;;;;;13.22;100.00;98208.63;5015802;28;20194;-71
2022/10/26 06:48:16;;;;;;;6.57;3.23;;;;;;;13.17;100.00;98211.19;5014996;28;20195;-71
2022/10/26 06:50:52;;;;;;;8.83;3.17;;;;;;;13.26;100.00;98215.16;5015140;28;20229;-70
2022/10/26 06:53:32;;;;;;;5.63;3.30;;;;;;;13.24;100.00;98214.53;5015024;28;20194;-71
2022/10/26 06:56:00;;;;;;;7.87;3.40;;;;;;;13.18;100.00;98218.16;5015570;28;20187;-71
2022/10/26 06:58:34;;;;;;;8.83;3.93;;;;;;;13.14;100.00;98222.31;5014681;28;20233;-71
2022/10/26 07:01:01;;;;;;;6.63;3.13;;;;;;;13.26;100.00;98217.81;5014786;28;20227;-74
2022/10/26 07:03:27;;;;;;;6.03;3.20;;;;;;;13.29;100.00;98233.34;5014299;28;20688;-69
2022/10/26 07:05:53;;;;;;;6.77;3.43;;;;;;;13.22;100.00;98232.66;5014135;28;20221;-69
2022/10/26 07:08:20;;;;;;;5.13;3.10;;;;;;;13.31;100.00;98233.13;5014562;28;20225;-69
2022/10/26 07:10:47;;;;;;;8.50;3.17;;;;;;;13.21;100.00;98239.03;5014439;28;20229;-69
2022/10/26 07:13:13;;;;;;;5.30;3.43;;;;;;;13.19;100.00;98240.31;5014654;28;20206;-71
2022/10/26 07:15:41;;;;;;;4.40;3.20;;;;;;;13.21;100.00;98239.03;5014515;28;20218;-72
2022/10/26 07:18:08;;;;;;;7.03;3.17;;;;;;;13.26;100.00;98246.34;5014253;28;20661;-72
2022/10/26 07:20:39;;;;;;;6.53;3.80;;;;;;;13.29;100.00;98241.38;5014463;28;20225;-71
2022/10/26 07:23:06;;;;;;;5.23;3.67;;;;;;;13.29;100.00;98244.03;5014035;28;20210;-73
2022/10/26 07:25:37;;;;;;;10.27;3.70;;;;;;;13.32;100.00;98246.25;5013827;28;20210;-73
2022/10/26 07:28:04;;;;;;;8.80;3.70;;;;;;;13.37;100.00;98249.03;5014070;28;20630;-74
2022/10/26 07:30:31;;;;;;;7.90;3.83;;;;;;;13.36;100.00;98258.09;5014129;28;20248;-74
2022/10/26 07:33:04;;;;;;;4.47;3.40;;;;;;;13.39;100.00;98259.50;5014213;28;20206;-74
2022/10/26 07:35:30;;;;;;;7.57;3.80;;;;;;;13.40;100.00;98258.44;5014218;28;20642;-74
2022/10/26 07:37:59;;;;;;;5.87;3.43;;;;;;;13.41;100.00;98260.88;5013958;28;20233;-75
2022/10/26 07:40:25;;;;;;;7.77;3.43;;;;;;;13.50;100.00;98264.00;5013855;28;20701;-74
2022/10/26 07:42:52;;;;;;;5.13;3.40;;;;;;;13.55;100.00;98267.63;5013847;28;20217;-74
2022/10/26 07:45:19;;;;;;;6.43;3.10;;;;;;;13.67;100.00;98275.63;5014175;28;20233;-74
2022/10/26 07:47:46;;;;;;;7.10;3.03;;;;;;;13.92;100.00;98277.00;5013709;28;20328;-74
2022/10/26 07:50:13;;;;;;;9.47;3.50;;;;;;;13.96;100.00;98274.66;5013928;28;20230;-73
2022/10/26 07:52:40;;;;;;;4.53;2.60;;;;;;;14.14;100.00;98279.84;5014129;28;20206;-73
2022/10/26 07:55:08;;;;;;;5.87;2.50;;;;;;;14.30;100.00;98281.84;5013799;28;20245;-73
2022/10/26 07:57:35;;;;;;;4.93;2.20;;;;;;;14.37;100.00;98285.19;5013887;28;20206;-73
2022/10/26 08:00:01;;;;;;;5.57;2.47;;;;;;;14.53;100.00;98281.78;5013146;28;20218;-73
2022/10/26 08:02:28;;;;;;;5.73;2.20;;;;;;;14.64;100.00;98280.91;5013435;28;20631;-73
2022/10/26 08:04:54;;;;;;;7.20;2.40;;;;;;;14.73;100.00;98280.28;5013523;28;20689;-73
2022/10/26 08:07:20;;;;;;;5.83;2.13;;;;;;;14.71;100.00;98287.75;5013853;28;20206;-73
2022/10/26 08:09:47;;;;;;;5.73;2.23;;;;;;;14.74;100.00;98273.88;5013415;28;20222;-74
2022/10/26 08:12:15;;;;;;;4.00;1.87;;;;;;;14.84;100.00;98273.25;5013280;28;20211;-73
2022/10/26 08:14:42;;;;;;;6.87;2.33;;;;;;;14.89;100.00;98276.84;5014050;28;20613;-74
2022/10/26 08:17:09;;;;;;;6.87;2.10;;;;;;;14.96;100.00;98285.53;5014276;28;20191;-73
2022/10/26 08:19:35;;;;;;;3.63;1.90;;;;;;;15.10;100.00;98284.16;5013638;28;20224;-73
2022/10/26 08:22:02;;;;;;;4.43;2.10;;;;;;;15.15;100.00;98278.88;5013518;28;20226;-73
2022/10/26 08:24:29;;;;;;;4.30;1.90;;;;;;;15.21;100.00;98285.97;5013593;28;20206;-73
2022/10/26 08:26:56;;;;;;;4.97;2.20;;;;;;;15.21;100.00;98283.31;5013263;28;20215;-74
2022/10/26 08:29:23;;;;;;;4.77;2.30;;;;;;;15.26;100.00;98280.69;5013601;28;20226;-73
2022/10/26 08:31:49;;;;;;;5.30;2.23;;;;;;;15.34;100.00;98287.53;5013608;28;20593;-73
2022/10/26 08:34:15;;;;;;;5.43;2.00;;;;;;;15.35;100.00;98286.50;5013174;28;20232;-73
2022/10/26 08:36:42;;;;;;;3.47;2.13;;;;;;;15.38;100.00;98281.44;5013572;28;20207;-74
2022/10/26 08:39:08;;;;;;;5.43;2.47;;;;;;;15.49;100.00;98283.25;5013062;28;20565;-73
2022/10/26 08:41:42;;;;;;;4.10;2.10;;;;;;;15.44;100.00;98285.03;5013398;28;20222;-73
2022/10/26 08:44:14;;;;;;;3.77;1.93;;;;;;;15.41;100.00;98280.97;5013312;28;20199;-73
2022/10/26 08:46:45;;;;;;;6.23;2.07;;;;;;;15.38;100.00;98294.84;5013124;28;20207;-74
2022/10/26 08:49:33;;;;;;;3.23;2.17;;;;;;;15.40;100.00;98295.44;5012101;28;20215;-73
2022/10/26 08:52:02;;;;;;;3.90;2.40;;;;;;;15.41;100.00;98299.72;5012971;28;20710;-73
2022/10/26 08:54:42;;;;;;;6.70;2.57;;;;;;;15.47;100.00;98298.75;5013339;28;20214;-73
2022/10/26 08:57:35;;;;;;;6.23;2.07;;;;;;;15.59;100.00;98315.56;5013206;28;20205;-73
2022/10/26 09:00:14;;;;;;;4.23;2.20;;;;;;;15.74;100.00;98315.78;5013627;28;20222;-73
2022/10/26 09:02:40;;;;;;;3.53;2.00;;;;;;;15.77;100.00;98320.66;5013299;28;20226;-73
2022/10/26 09:05:21;;;;;;;7.67;2.10;;;;;;;15.89;100.00;98318.72;5012858;28;20708;-73
2022/10/26 09:07:54;;;;;;;4.70;2.07;;;;;;;15.94;100.00;98329.50;5013262;28;20202;-73
2022/10/26 09:10:44;;;;;;;4.47;2.00;;;;;;;16.08;100.00;98329.94;5013089;28;20288;-73
2022/10/26 09:13:13;;;;;;;4.87;2.10;;;;;;;16.11;100.00;98335.63;5013020;28;20195;-73
2022/10/26 09:15:54;;;;;;;5.50;2.17;;;;;;;16.34;100.00;98329.25;5012493;28;20689;-73
2022/10/26 09:18:35;;;;;;;3.77;2.23;;;;;;;16.47;100.00;98334.28;5014056;28;20195;-72
2022/10/26 09:21:22;;;;;;;4.60;2.00;;;;;;;16.58;100.00;98342.19;5012959;28;20232;-73
2022/10/26 09:24:02;;;;;;;3.77;1.87;;;;;;;16.81;100.00;98343.81;5012926;28;20195;-73
2022/10/26 09:26:34;;;;;;;3.80;2.17;;;;;;;16.87;100.00;98351.66;5012986;28;20201;-72
2022/10/26 09:29:03;;;;;;;5.73;2.03;;;;;;;16.87;100.00;98348.97;5013094;28;20195;-73
2022/10/26 09:31:32;;;;;;;4.00;2.10;;;;;;;16.98;100.00;98356.09;5012942;28;20222;-73
2022/10/26 09:34:02;;;;;;;7.33;2.37;;;;;;;17.17;100.00;98359.25;5012797;28;20320;-73
2022/10/26 09:36:30;;;;;;;3.40;2.20;;;;;;;17.03;100.00;98358.84;5012993;28;20210;-73
2022/10/26 09:39:13;;;;;;;4.63;2.00;;;;;;;17.02;99.98;98364.47;5013062;28;20777;-73
2022/10/26 09:41:46;;;;;;;5.50;2.00;;;;;;;17.17;99.98;98373.50;5012981;28;20285;-73
2022/10/26 09:44:26;;;;;;;5.20;2.03;;;;;;;17.06;99.61;98373.63;5012794;28;20198;-73
2022/10/26 09:47:02;;;;;;;4.83;1.90;;;;;;;17.07;99.40;98372.56;5015084;28;20266;-73
2022/10/26 09:49:49;;;;;;;4.27;1.87;;;;;;;17.33;99.11;98377.16;5016221;28;20673;-72
2022/10/26 09:52:16;;;;;;;4.33;2.20;;;;;;;17.46;99.06;98372.19;5016078;28;20670;-70
2022/10/26 09:54:43;;;;;;;7.50;2.23;;;;;;;17.32;97.52;98380.91;5016208;28;20226;-70
2022/10/26 09:57:14;;;;;;;6.30;2.10;;;;;;;17.58;98.16;98370.16;5016116;28;20202;-70
2022/10/26 09:59:41;;;;;;;4.93;2.20;;;;;;;17.64;94.32;98374.50;5015621;28;20534;-69
2022/10/26 10:02:42;;;;;;;5.47;2.00;;;;;;;17.73;97.13;98375.66;5015918;28;20206;-69
2022/10/26 10:05:27;;;;;;;9.27;4.20;;;;;;;17.84;93.94;98382.75;5015285;28;20682;-69
2022/10/26 10:08:29;;;;;;;9.23;5.00;;;;;;;17.81;96.22;98380.56;5015744;28;20238;-69
2022/10/26 10:11:09;;;;;;;16.63;11.10;;;;;;;17.77;96.99;98378.63;5015221;28;20341;-68
2022/10/26 10:13:40;;;;;;;24.27;16.80;;;;;;;17.70;98.17;98378.88;5015758;28;20202;-69
2022/10/26 10:16:13;;;;;;;9.40;4.63;;;;;;;17.74;96.70;98379.16;5015540;28;20210;-68
2022/10/26 10:18:41;;;;;;;8.00;3.10;;;;;;;17.77;94.49;98384.84;5015314;28;20218;-68
2022/10/26 10:21:10;;;;;;;6.20;2.03;;;;;;;17.88;91.33;98380.34;5013989;28;20305;-68
2022/10/26 10:23:48;;;;;;;31.37;25.33;;;;;;;17.87;93.44;98395.66;5015545;28;20202;-68
2022/10/26 10:26:15;;;;;;;6.17;2.80;;;;;;;17.84;96.20;98395.38;5015483;28;20187;-68
2022/10/26 10:28:42;;;;;;;4.33;2.37;;;;;;;17.96;94.74;98394.13;5015320;28;20210;-68
2022/10/26 10:31:22;;;;;;;3.97;2.83;;;;;;;18.17;90.46;98397.78;5015577;28;20245;-68
2022/10/26 10:33:49;;;;;;;7.83;2.73;;;;;;;18.56;90.46;98410.72;5015488;28;20557;-68
2022/10/26 10:36:19;;;;;;;6.00;2.97;;;;;;;18.71;86.70;98416.19;5015344;28;20206;-68
2022/10/26 10:38:48;;;;;;;6.47;2.50;;;;;;;18.99;83.86;98410.38;5015150;28;20631;-68
2022/10/26 10:41:26;;;;;;;14.60;10.33;;;;;;;19.04;85.83;98418.47;5015097;28;20230;-68
2022/10/26 10:44:07;;;;;;;22.43;16.50;;;;;;;18.81;85.47;98416.22;5013699;28;20634;-68
2022/10/26 10:46:36;;;;;;;4.27;1.80;;;;;;;18.73;85.83;98414.03;5014948;28;20186;-74
2022/10/26 10:49:17;;;;;;;4.13;2.17;;;;;;;18.72;85.97;98423.19;5016623;28;20214;-73
2022/10/26 10:51:44;;;;;;;11.20;7.20;;;;;;;18.61;86.60;98421.53;5015210;28;20585;-74
2022/10/26 10:54:25;;;;;;;27.30;21.27;;;;;;;18.63;83.40;98423.94;5014866;28;20662;-75
2022/10/26 10:56:55;;;;;;;29.17;24.27;;;;;;;18.72;81.37;98425.06;5015232;28;20218;-73
2022/10/26 10:59:52;;;;;;;21.60;16.30;;;;;;;18.68;81.98;98424.00;5013528;28;20214;-74
2022/10/26 11:02:38;;;;;;;48.80;38.77;;;;;;;18.59;82.26;98418.25;5014744;28;20199;-73
2022/10/26 11:05:19;;;;;;;13.87;9.83;;;;;;;18.68;84.44;98427.47;5014933;28;20197;-74
2022/10/26 11:08:03;;;;;;;7.17;2.63;;;;;;;19.21;80.31;98429.88;5015357;28;20561;-73
2022/10/26 11:10:35;;;;;;;4.37;2.50;;;;;;;19.36;81.86;98427.22;5014926;28;20231;-73
2022/10/26 11:13:10;;;;;;;9.57;5.43;;;;;;;19.48;79.15;98428.91;5014248;28;20187;-73
2022/10/26 11:15:43;;;;;;;5.87;3.27;;;;;;;19.39;80.37;98425.88;5014510;28;20272;-74
2022/10/26 11:18:16;;;;;;;5.27;2.70;;;;;;;19.43;81.06;98433.19;5014303;28;20187;-73
2022/10/26 11:20:51;;;;;;;5.17;2.27;;;;;;;19.28;80.27;98424.25;5014816;28;20222;-73
2022/10/26 11:23:29;;;;;;;9.77;5.97;;;;;;;19.22;81.68;98426.13;5014733;28;20201;-73
2022/10/26 11:26:13;;;;;;;10.77;7.47;;;;;;;19.13;82.39;98435.75;5015119;28;20197;-74
2022/10/26 11:29:01;;;;;;;5.10;2.50;;;;;;;19.16;80.61;98435.25;5015009;28;20552;-73
2022/10/26 11:31:33;;;;;;;6.63;2.10;;;;;;;19.25;81.02;98425.59;5015678;28;20236;-74
2022/10/26 11:34:27;;;;;;;5.10;2.77;;;;;;;19.39;77.50;98436.69;5017382;28;20202;-75
2022/10/26 11:37:03;;;;;;;7.50;3.80;;;;;;;19.44;77.18;98434.81;5017540;28;20187;-74
2022/10/26 11:39:45;;;;;;;5.50;2.50;;;;;;;19.43;78.15;98438.59;5015205;28;20605;-74
2022/10/26 11:42:19;;;;;;;5.17;2.40;;;;;;;19.40;78.04;98439.13;5016448;28;20198;-75
2022/10/26 11:45:32;;;;;;;6.13;3.07;;;;;;;19.47;77.31;98441.56;5016269;28;20245;-74
2022/10/26 11:48:14;;;;;;;6.43;3.37;;;;;;;19.48;77.72;98437.78;4956790;28;20223;-74